sensor_id;sensor_type;location;lat;lon;timestamp;pressure;altitude;pressure_sealevel;temperature;humidity
62051;BME280;48008;51.204;6.766;2022-07-04T00:01:42;101562.22;;;16.99;59.52
62051;BME280;48008;51.204;6.766;2022-07-04T00:04:09;101559.16;;;17.02;58.21
62051;BME280;48008;51.204;6.766;2022-07-04T00:06:36;101561.75;;;16.87;59.10
62051;BME280;48008;51.204;6.766;2022-07-04T00:09:03;101569.28;;;16.92;58.74
62051;BME280;48008;51.204;6.766;2022-07-04T00:11:29;101562.31;;;16.83;59.21
62051;BME280;48008;51.204;6.766;2022-07-04T00:13:56;101560.94;;;16.79;59.55
62051;BME280;48008;51.204;6.766;2022-07-04T00:16:23;101567.31;;;16.78;59.59
62051;BME280;48008;51.204;6.766;2022-07-04T00:18:49;101568.19;;;16.70;60.07
62051;BME280;48008;51.204;6.766;2022-07-04T00:21:16;101573.00;;;16.75;59.58
62051;BME280;48008;51.204;6.766;2022-07-04T00:23:43;101562.78;;;16.78;59.68
62051;BME280;48008;51.204;6.766;2022-07-04T00:26:10;101559.47;;;16.68;60.28
62051;BME280;48008;51.204;6.766;2022-07-04T00:28:37;101561.31;;;16.67;59.92
62051;BME280;48008;51.204;6.766;2022-07-04T00:31:03;101555.63;;;16.70;59.41
62051;BME280;48008;51.204;6.766;2022-07-04T00:33:30;101564.16;;;16.66;59.08
62051;BME280;48008;51.204;6.766;2022-07-04T00:35:57;101560.19;;;16.62;60.29
62051;BME280;48008;51.204;6.766;2022-07-04T00:38:25;101569.75;;;16.56;60.73
62051;BME280;48008;51.204;6.766;2022-07-04T00:40:51;101554.72;;;16.47;60.98
62051;BME280;48008;51.204;6.766;2022-07-04T00:43:23;101550.56;;;16.36;60.80
62051;BME280;48008;51.204;6.766;2022-07-04T00:45:51;101544.97;;;16.54;60.97
62051;BME280;48008;51.204;6.766;2022-07-04T00:48:18;101547.34;;;16.41;60.65
62051;BME280;48008;51.204;6.766;2022-07-04T00:50:46;101537.34;;;16.43;61.29
62051;BME280;48008;51.204;6.766;2022-07-04T00:53:15;101538.50;;;16.48;60.89
62051;BME280;48008;51.204;6.766;2022-07-04T00:55:42;101544.66;;;16.49;60.64
62051;BME280;48008;51.204;6.766;2022-07-04T00:58:09;101539.16;;;16.50;60.73
62051;BME280;48008;51.204;6.766;2022-07-04T01:00:39;101542.53;;;16.36;61.14
62051;BME280;48008;51.204;6.766;2022-07-04T01:03:05;101539.88;;;16.36;61.69
62051;BME280;48008;51.204;6.766;2022-07-04T01:05:32;101541.38;;;16.30;62.30
62051;BME280;48008;51.204;6.766;2022-07-04T01:07:59;101531.22;;;16.18;62.25
62051;BME280;48008;51.204;6.766;2022-07-04T01:10:26;101535.22;;;16.22;62.21
62051;BME280;48008;51.204;6.766;2022-07-04T01:12:53;101537.19;;;16.36;61.73
62051;BME280;48008;51.204;6.766;2022-07-04T01:15:20;101544.22;;;16.29;62.14
62051;BME280;48008;51.204;6.766;2022-07-04T01:17:47;101540.91;;;16.19;62.93
62051;BME280;48008;51.204;6.766;2022-07-04T01:20:15;101532.38;;;16.15;63.20
62051;BME280;48008;51.204;6.766;2022-07-04T01:22:42;101538.44;;;16.17;62.76
62051;BME280;48008;51.204;6.766;2022-07-04T01:25:09;101531.25;;;16.01;63.26
62051;BME280;48008;51.204;6.766;2022-07-04T01:27:36;101533.75;;;16.11;63.06
62051;BME280;48008;51.204;6.766;2022-07-04T01:30:03;101535.56;;;16.19;62.91
62051;BME280;48008;51.204;6.766;2022-07-04T01:32:30;101535.75;;;16.09;63.16
62051;BME280;48008;51.204;6.766;2022-07-04T01:34:56;101540.94;;;16.10;63.10
62051;BME280;48008;51.204;6.766;2022-07-04T01:37:23;101540.13;;;16.10;63.54
62051;BME280;48008;51.204;6.766;2022-07-04T01:39:50;101535.59;;;16.02;63.92
62051;BME280;48008;51.204;6.766;2022-07-04T01:42:17;101536.94;;;15.98;64.30
62051;BME280;48008;51.204;6.766;2022-07-04T01:44:44;101529.44;;;15.93;64.79
62051;BME280;48008;51.204;6.766;2022-07-04T01:47:11;101529.13;;;15.88;65.34
62051;BME280;48008;51.204;6.766;2022-07-04T01:49:38;101531.44;;;15.91;65.31
62051;BME280;48008;51.204;6.766;2022-07-04T01:52:05;101538.66;;;15.83;65.65
62051;BME280;48008;51.204;6.766;2022-07-04T01:54:31;101538.13;;;15.96;64.67
62051;BME280;48008;51.204;6.766;2022-07-04T01:56:58;101538.81;;;15.98;64.14
62051;BME280;48008;51.204;6.766;2022-07-04T01:59:25;101530.59;;;15.91;64.94
62051;BME280;48008;51.204;6.766;2022-07-04T02:02:11;101533.63;;;15.80;65.88
62051;BME280;48008;51.204;6.766;2022-07-04T02:04:38;101545.16;;;15.80;65.17
62051;BME280;48008;51.204;6.766;2022-07-04T02:07:05;101540.00;;;15.87;64.94
62051;BME280;48008;51.204;6.766;2022-07-04T02:09:31;101550.69;;;15.79;65.19
62051;BME280;48008;51.204;6.766;2022-07-04T02:11:58;101552.88;;;15.83;65.11
62051;BME280;48008;51.204;6.766;2022-07-04T02:14:45;101556.03;;;15.70;65.46
62051;BME280;48008;51.204;6.766;2022-07-04T02:17:11;101551.66;;;15.69;65.78
62051;BME280;48008;51.204;6.766;2022-07-04T02:19:38;101558.84;;;15.61;66.97
62051;BME280;48008;51.204;6.766;2022-07-04T02:22:05;101561.72;;;15.59;66.82
62051;BME280;48008;51.204;6.766;2022-07-04T02:24:32;101555.03;;;15.63;66.57
62051;BME280;48008;51.204;6.766;2022-07-04T02:26:59;101550.50;;;15.55;66.66
62051;BME280;48008;51.204;6.766;2022-07-04T02:29:26;101561.72;;;15.59;66.94
62051;BME280;48008;51.204;6.766;2022-07-04T02:31:53;101562.03;;;15.56;66.72
62051;BME280;48008;51.204;6.766;2022-07-04T02:34:20;101566.53;;;15.64;66.48
62051;BME280;48008;51.204;6.766;2022-07-04T02:36:47;101570.41;;;15.61;67.39
62051;BME280;48008;51.204;6.766;2022-07-04T02:39:14;101561.88;;;15.58;67.21
62051;BME280;48008;51.204;6.766;2022-07-04T02:41:40;101570.91;;;15.48;67.41
62051;BME280;48008;51.204;6.766;2022-07-04T02:44:07;101566.88;;;15.36;68.02
62051;BME280;48008;51.204;6.766;2022-07-04T02:46:34;101566.34;;;15.24;68.54
62051;BME280;48008;51.204;6.766;2022-07-04T02:49:01;101563.66;;;15.24;68.88
62051;BME280;48008;51.204;6.766;2022-07-04T02:51:29;101562.66;;;15.09;69.61
62051;BME280;48008;51.204;6.766;2022-07-04T02:53:56;101569.50;;;15.11;69.28
62051;BME280;48008;51.204;6.766;2022-07-04T02:56:23;101582.72;;;15.21;68.67
62051;BME280;48008;51.204;6.766;2022-07-04T02:58:50;101586.91;;;15.32;68.40
62051;BME280;48008;51.204;6.766;2022-07-04T03:01:17;101581.22;;;15.27;68.67
62051;BME280;48008;51.204;6.766;2022-07-04T03:03:46;101582.38;;;15.16;68.94
62051;BME280;48008;51.204;6.766;2022-07-04T03:06:14;101582.22;;;15.26;69.38
62051;BME280;48008;51.204;6.766;2022-07-04T03:08:41;101586.91;;;15.24;68.73
62051;BME280;48008;51.204;6.766;2022-07-04T03:11:07;101595.06;;;15.22;69.02
62051;BME280;48008;51.204;6.766;2022-07-04T03:13:36;101602.75;;;15.17;68.89
62051;BME280;48008;51.204;6.766;2022-07-04T03:16:03;101605.00;;;14.87;70.12
62051;BME280;48008;51.204;6.766;2022-07-04T03:18:30;101606.88;;;15.03;69.70
62051;BME280;48008;51.204;6.766;2022-07-04T03:20:56;101606.38;;;15.00;69.24
62051;BME280;48008;51.204;6.766;2022-07-04T03:23:23;101610.56;;;15.02;69.43
62051;BME280;48008;51.204;6.766;2022-07-04T03:25:50;101612.06;;;15.05;69.50
62051;BME280;48008;51.204;6.766;2022-07-04T03:28:18;101616.06;;;15.01;69.77
62051;BME280;48008;51.204;6.766;2022-07-04T03:30:44;101616.34;;;14.89;70.28
62051;BME280;48008;51.204;6.766;2022-07-04T03:33:11;101609.50;;;14.87;70.00
62051;BME280;48008;51.204;6.766;2022-07-04T03:35:38;101618.66;;;14.84;70.45
62051;BME280;48008;51.204;6.766;2022-07-04T03:38:05;101623.38;;;14.90;70.57
62051;BME280;48008;51.204;6.766;2022-07-04T03:40:32;101618.19;;;14.89;70.99
62051;BME280;48008;51.204;6.766;2022-07-04T03:43:02;101618.66;;;14.84;71.12
62051;BME280;48008;51.204;6.766;2022-07-04T03:45:29;101625.16;;;14.82;71.48
62051;BME280;48008;51.204;6.766;2022-07-04T03:47:56;101623.63;;;14.71;72.28
62051;BME280;48008;51.204;6.766;2022-07-04T03:50:23;101620.13;;;14.70;72.37
62051;BME280;48008;51.204;6.766;2022-07-04T03:52:50;101620.63;;;14.74;72.18
62051;BME280;48008;51.204;6.766;2022-07-04T03:55:17;101617.56;;;14.61;72.82
62051;BME280;48008;51.204;6.766;2022-07-04T03:57:43;101621.09;;;14.61;72.93
62051;BME280;48008;51.204;6.766;2022-07-04T04:00:10;101620.75;;;14.64;72.99
62051;BME280;48008;51.204;6.766;2022-07-04T04:02:40;101619.75;;;14.65;72.01
62051;BME280;48008;51.204;6.766;2022-07-04T04:05:11;101619.28;;;14.70;72.07
62051;BME280;48008;51.204;6.766;2022-07-04T04:07:55;101621.97;;;14.70;71.54
62051;BME280;48008;51.204;6.766;2022-07-04T04:10:22;101624.56;;;14.62;71.86
62051;BME280;48008;51.204;6.766;2022-07-04T04:12:50;101616.09;;;14.66;71.50
62051;BME280;48008;51.204;6.766;2022-07-04T04:15:17;101620.75;;;14.64;71.79
62051;BME280;48008;51.204;6.766;2022-07-04T04:17:44;101622.06;;;14.60;71.80
62051;BME280;48008;51.204;6.766;2022-07-04T04:20:11;101625.94;;;14.66;71.30
62051;BME280;48008;51.204;6.766;2022-07-04T04:22:38;101626.25;;;14.63;72.10
62051;BME280;48008;51.204;6.766;2022-07-04T04:25:05;101627.91;;;14.64;72.56
62051;BME280;48008;51.204;6.766;2022-07-04T04:27:32;101628.75;;;14.64;72.15
62051;BME280;48008;51.204;6.766;2022-07-04T04:29:59;101628.44;;;14.67;71.30
62051;BME280;48008;51.204;6.766;2022-07-04T04:32:26;101625.47;;;14.70;71.88
62051;BME280;48008;51.204;6.766;2022-07-04T04:34:53;101626.81;;;14.74;72.18
62051;BME280;48008;51.204;6.766;2022-07-04T04:37:20;101629.59;;;14.65;72.13
62051;BME280;48008;51.204;6.766;2022-07-04T04:39:46;101636.75;;;14.64;71.80
62051;BME280;48008;51.204;6.766;2022-07-04T04:42:13;101635.31;;;14.70;72.05
62051;BME280;48008;51.204;6.766;2022-07-04T04:44:40;101634.16;;;14.72;71.28
62051;BME280;48008;51.204;6.766;2022-07-04T04:47:07;101633.50;;;14.78;71.28
62051;BME280;48008;51.204;6.766;2022-07-04T04:49:33;101634.00;;;14.82;71.21
62051;BME280;48008;51.204;6.766;2022-07-04T04:52:00;101637.34;;;14.84;71.40
62051;BME280;48008;51.204;6.766;2022-07-04T04:54:26;101645.72;;;14.89;71.30
62051;BME280;48008;51.204;6.766;2022-07-04T04:56:53;101654.94;;;14.95;71.02
62051;BME280;48008;51.204;6.766;2022-07-04T04:59:20;101655.94;;;14.94;70.90
62051;BME280;48008;51.204;6.766;2022-07-04T05:01:47;101660.09;;;14.88;70.92
62051;BME280;48008;51.204;6.766;2022-07-04T05:04:14;101665.84;;;15.02;71.10
62051;BME280;48008;51.204;6.766;2022-07-04T05:06:41;101656.03;;;15.19;70.75
62051;BME280;48008;51.204;6.766;2022-07-04T05:09:08;101654.03;;;15.21;70.50
62051;BME280;48008;51.204;6.766;2022-07-04T05:11:35;101655.25;;;15.34;70.24
62051;BME280;48008;51.204;6.766;2022-07-04T05:14:02;101644.34;;;15.28;70.58
62051;BME280;48008;51.204;6.766;2022-07-04T05:16:28;101640.84;;;15.27;70.72
62051;BME280;48008;51.204;6.766;2022-07-04T05:18:55;101644.25;;;15.46;70.47
62051;BME280;48008;51.204;6.766;2022-07-04T05:21:22;101643.56;;;15.44;70.28
62051;BME280;48008;51.204;6.766;2022-07-04T05:23:48;101655.78;;;15.46;70.29
62051;BME280;48008;51.204;6.766;2022-07-04T05:26:15;101656.94;;;15.44;70.72
62051;BME280;48008;51.204;6.766;2022-07-04T05:28:42;101650.59;;;15.45;70.54
62051;BME280;48008;51.204;6.766;2022-07-04T05:31:09;101648.91;;;15.44;70.60
62051;BME280;48008;51.204;6.766;2022-07-04T05:33:36;101644.25;;;15.46;70.98
62051;BME280;48008;51.204;6.766;2022-07-04T05:36:03;101645.91;;;15.55;70.72
62051;BME280;48008;51.204;6.766;2022-07-04T05:38:29;101639.41;;;15.49;70.94
62051;BME280;48008;51.204;6.766;2022-07-04T05:40:56;101652.13;;;15.64;70.27
62051;BME280;48008;51.204;6.766;2022-07-04T05:43:23;101649.47;;;15.55;70.22
62051;BME280;48008;51.204;6.766;2022-07-04T05:45:51;101644.94;;;15.56;70.07
62051;BME280;48008;51.204;6.766;2022-07-04T05:48:18;101647.44;;;15.66;69.92
62051;BME280;48008;51.204;6.766;2022-07-04T05:50:46;101644.28;;;15.54;70.78
62051;BME280;48008;51.204;6.766;2022-07-04T05:53:12;101650.47;;;15.71;70.24
62051;BME280;48008;51.204;6.766;2022-07-04T05:55:39;101649.28;;;15.65;70.59
62051;BME280;48008;51.204;6.766;2022-07-04T05:58:06;101650.53;;;15.79;70.92
62051;BME280;48008;51.204;6.766;2022-07-04T06:00:32;101649.84;;;15.85;70.34
62051;BME280;48008;51.204;6.766;2022-07-04T06:02:59;101648.00;;;15.86;70.66
62051;BME280;48008;51.204;6.766;2022-07-04T06:05:26;101641.84;;;15.93;70.60
62051;BME280;48008;51.204;6.766;2022-07-04T06:07:53;101646.34;;;16.01;70.77
62051;BME280;48008;51.204;6.766;2022-07-04T06:10:20;101641.13;;;16.08;70.33
62051;BME280;48008;51.204;6.766;2022-07-04T06:12:46;101640.44;;;16.22;69.41
62051;BME280;48008;51.204;6.766;2022-07-04T06:15:13;101635.44;;;16.19;68.78
62051;BME280;48008;51.204;6.766;2022-07-04T06:17:42;101644.28;;;16.28;68.52
62051;BME280;48008;51.204;6.766;2022-07-04T06:20:09;101640.63;;;16.37;68.19
62051;BME280;48008;51.204;6.766;2022-07-04T06:22:41;101644.63;;;16.41;68.04
62051;BME280;48008;51.204;6.766;2022-07-04T06:25:11;101646.28;;;16.42;68.04
62051;BME280;48008;51.204;6.766;2022-07-04T06:27:38;101646.78;;;16.38;68.85
62051;BME280;48008;51.204;6.766;2022-07-04T06:30:07;101640.09;;;16.42;69.26
62051;BME280;48008;51.204;6.766;2022-07-04T06:32:44;101637.69;;;16.55;66.89
62051;BME280;48008;51.204;6.766;2022-07-04T06:35:12;101640.41;;;16.39;67.76
62051;BME280;48008;51.204;6.766;2022-07-04T06:37:59;101641.56;;;16.53;67.25
62051;BME280;48008;51.204;6.766;2022-07-04T06:40:26;101636.53;;;16.58;66.84
62051;BME280;48008;51.204;6.766;2022-07-04T06:42:52;101651.59;;;16.59;65.18
62051;BME280;48008;51.204;6.766;2022-07-04T06:45:19;101642.34;;;16.69;64.42
62051;BME280;48008;51.204;6.766;2022-07-04T06:47:46;101648.38;;;16.72;65.53
62051;BME280;48008;51.204;6.766;2022-07-04T06:50:13;101646.84;;;16.85;64.44
62051;BME280;48008;51.204;6.766;2022-07-04T06:52:55;101655.69;;;16.94;62.05
62051;BME280;48008;51.204;6.766;2022-07-04T06:55:22;101655.88;;;16.93;62.53
62051;BME280;48008;51.204;6.766;2022-07-04T06:57:49;101657.19;;;16.97;63.39
62051;BME280;48008;51.204;6.766;2022-07-04T07:00:15;101656.50;;;17.03;64.62
62051;BME280;48008;51.204;6.766;2022-07-04T07:02:42;101654.31;;;17.06;62.73
62051;BME280;48008;51.204;6.766;2022-07-04T07:05:09;101652.59;;;17.14;63.11
62051;BME280;48008;51.204;6.766;2022-07-04T07:07:36;101641.69;;;17.15;61.18
62051;BME280;48008;51.204;6.766;2022-07-04T07:10:03;101649.03;;;17.21;60.59
62051;BME280;48008;51.204;6.766;2022-07-04T07:12:30;101647.53;;;17.19;61.13
62051;BME280;48008;51.204;6.766;2022-07-04T07:14:57;101644.03;;;17.18;62.00
62051;BME280;48008;51.204;6.766;2022-07-04T07:17:24;101644.97;;;17.34;59.05
62051;BME280;48008;51.204;6.766;2022-07-04T07:19:51;101646.13;;;17.31;58.29
62051;BME280;48008;51.204;6.766;2022-07-04T07:22:19;101645.06;;;17.40;58.92
62051;BME280;48008;51.204;6.766;2022-07-04T07:24:46;101645.31;;;17.31;58.74
62051;BME280;48008;51.204;6.766;2022-07-04T07:27:12;101651.22;;;17.49;58.30
62051;BME280;48008;51.204;6.766;2022-07-04T07:29:39;101643.03;;;17.42;57.41
62051;BME280;48008;51.204;6.766;2022-07-04T07:32:07;101640.72;;;17.39;57.94
62051;BME280;48008;51.204;6.766;2022-07-04T07:34:35;101647.06;;;17.46;57.78
62051;BME280;48008;51.204;6.766;2022-07-04T07:37:02;101645.63;;;17.59;58.18
62051;BME280;48008;51.204;6.766;2022-07-04T07:39:29;101644.31;;;17.55;57.73
62051;BME280;48008;51.204;6.766;2022-07-04T07:41:55;101649.25;;;17.66;57.86
62051;BME280;48008;51.204;6.766;2022-07-04T07:44:22;101646.81;;;17.56;57.60
62051;BME280;48008;51.204;6.766;2022-07-04T07:46:49;101644.13;;;17.56;59.45
62051;BME280;48008;51.204;6.766;2022-07-04T07:49:15;101646.16;;;17.54;57.96
62051;BME280;48008;51.204;6.766;2022-07-04T07:51:42;101644.53;;;17.68;58.30
62051;BME280;48008;51.204;6.766;2022-07-04T07:54:09;101648.97;;;17.61;58.45
62051;BME280;48008;51.204;6.766;2022-07-04T07:56:44;101645.63;;;17.82;57.19
62051;BME280;48008;51.204;6.766;2022-07-04T07:59:11;101652.75;;;17.98;56.90
62051;BME280;48008;51.204;6.766;2022-07-04T08:01:38;101648.94;;;17.92;58.55
62051;BME280;48008;51.204;6.766;2022-07-04T08:04:05;101644.88;;;17.96;59.60
62051;BME280;48008;51.204;6.766;2022-07-04T08:06:52;101642.78;;;18.21;56.64
62051;BME280;48008;51.204;6.766;2022-07-04T08:09:38;101655.41;;;18.21;55.38
62051;BME280;48008;51.204;6.766;2022-07-04T08:12:06;101657.63;;;18.32;55.23
62051;BME280;48008;51.204;6.766;2022-07-04T08:14:34;101653.53;;;18.21;55.27
62051;BME280;48008;51.204;6.766;2022-07-04T08:17:01;101652.38;;;18.54;51.23
62051;BME280;48008;51.204;6.766;2022-07-04T08:19:27;101644.03;;;18.64;51.19
62051;BME280;48008;51.204;6.766;2022-07-04T08:21:54;101654.59;;;18.65;52.07
62051;BME280;48008;51.204;6.766;2022-07-04T08:24:38;101650.97;;;18.43;52.87
62051;BME280;48008;51.204;6.766;2022-07-04T08:27:04;101651.16;;;18.56;51.86
62051;BME280;48008;51.204;6.766;2022-07-04T08:29:31;101644.22;;;18.47;51.59
62051;BME280;48008;51.204;6.766;2022-07-04T08:31:58;101654.50;;;18.58;51.48
62051;BME280;48008;51.204;6.766;2022-07-04T08:34:25;101652.84;;;18.72;50.01
62051;BME280;48008;51.204;6.766;2022-07-04T08:36:52;101651.06;;;18.79;49.70
62051;BME280;48008;51.204;6.766;2022-07-04T08:39:19;101654.06;;;18.85;50.75
62051;BME280;48008;51.204;6.766;2022-07-04T08:41:46;101636.06;;;19.00;49.34
62051;BME280;48008;51.204;6.766;2022-07-04T08:44:13;101637.19;;;18.91;49.79
62051;BME280;48008;51.204;6.766;2022-07-04T08:46:41;101634.97;;;18.94;49.08
62051;BME280;48008;51.204;6.766;2022-07-04T08:49:16;101639.47;;;19.09;48.38
62051;BME280;48008;51.204;6.766;2022-07-04T08:51:51;101636.25;;;19.35;47.07
62051;BME280;48008;51.204;6.766;2022-07-04T08:54:19;101628.31;;;19.27;47.49
62051;BME280;48008;51.204;6.766;2022-07-04T08:57:08;101641.97;;;19.47;48.62
62051;BME280;48008;51.204;6.766;2022-07-04T08:59:54;101623.50;;;19.44;48.96
62051;BME280;48008;51.204;6.766;2022-07-04T09:02:22;101633.63;;;19.42;50.05
62051;BME280;48008;51.204;6.766;2022-07-04T09:04:50;101622.16;;;19.33;50.50
62051;BME280;48008;51.204;6.766;2022-07-04T09:07:16;101616.91;;;19.46;50.37
62051;BME280;48008;51.204;6.766;2022-07-04T09:09:44;101624.09;;;19.61;50.80
62051;BME280;48008;51.204;6.766;2022-07-04T09:12:15;101628.88;;;19.80;50.71
62051;BME280;48008;51.204;6.766;2022-07-04T09:14:42;101624.53;;;20.07;50.09
62051;BME280;48008;51.204;6.766;2022-07-04T09:17:09;101622.84;;;20.35;48.88
62051;BME280;48008;51.204;6.766;2022-07-04T09:19:36;101634.34;;;20.50;49.97
62051;BME280;48008;51.204;6.766;2022-07-04T09:22:04;101628.69;;;20.73;46.53
62051;BME280;48008;51.204;6.766;2022-07-04T09:24:45;101629.25;;;20.62;47.97
62051;BME280;48008;51.204;6.766;2022-07-04T09:27:29;101620.16;;;20.69;46.41
62051;BME280;48008;51.204;6.766;2022-07-04T09:29:55;101630.31;;;20.67;45.39
62051;BME280;48008;51.204;6.766;2022-07-04T09:32:40;101612.09;;;20.69;45.79
62051;BME280;48008;51.204;6.766;2022-07-04T09:35:09;101630.00;;;20.84;45.72
62051;BME280;48008;51.204;6.766;2022-07-04T09:37:42;101620.22;;;20.76;45.22
62051;BME280;48008;51.204;6.766;2022-07-04T09:40:33;101624.13;;;20.74;45.17
62051;BME280;48008;51.204;6.766;2022-07-04T09:43:10;101625.88;;;20.95;44.68
62051;BME280;48008;51.204;6.766;2022-07-04T09:45:56;101613.88;;;21.04;44.86
62051;BME280;48008;51.204;6.766;2022-07-04T09:48:24;101611.38;;;21.02;45.18
62051;BME280;48008;51.204;6.766;2022-07-04T09:50:51;101620.63;;;21.41;47.40
62051;BME280;48008;51.204;6.766;2022-07-04T09:53:18;101620.22;;;21.44;45.08
62051;BME280;48008;51.204;6.766;2022-07-04T09:55:45;101628.75;;;21.48;45.15
62051;BME280;48008;51.204;6.766;2022-07-04T09:58:14;101614.69;;;21.73;44.63
62051;BME280;48008;51.204;6.766;2022-07-04T10:00:43;101614.47;;;21.74;44.09
62051;BME280;48008;51.204;6.766;2022-07-04T10:03:30;101622.38;;;21.96;44.41
62051;BME280;48008;51.204;6.766;2022-07-04T10:06:07;101620.28;;;22.04;43.17
62051;BME280;48008;51.204;6.766;2022-07-04T10:08:35;101621.31;;;22.10;43.29
62051;BME280;48008;51.204;6.766;2022-07-04T10:11:04;101618.84;;;22.09;43.17
62051;BME280;48008;51.204;6.766;2022-07-04T10:13:34;101624.41;;;22.40;43.67
62051;BME280;48008;51.204;6.766;2022-07-04T10:16:01;101623.19;;;22.23;42.29
62051;BME280;48008;51.204;6.766;2022-07-04T10:18:27;101628.41;;;21.98;43.08
62051;BME280;48008;51.204;6.766;2022-07-04T10:20:55;101622.56;;;21.81;44.17
62051;BME280;48008;51.204;6.766;2022-07-04T10:23:23;101614.69;;;21.79;42.24
62051;BME280;48008;51.204;6.766;2022-07-04T10:25:53;101612.81;;;21.87;41.85
62051;BME280;48008;51.204;6.766;2022-07-04T10:28:20;101607.00;;;21.96;42.94
62051;BME280;48008;51.204;6.766;2022-07-04T10:30:50;101612.59;;;22.35;41.27
62051;BME280;48008;51.204;6.766;2022-07-04T10:33:22;101605.03;;;22.50;41.97
62051;BME280;48008;51.204;6.766;2022-07-04T10:36:13;101596.22;;;22.75;42.22
62051;BME280;48008;51.204;6.766;2022-07-04T10:38:51;101590.59;;;22.83;42.16
62051;BME280;48008;51.204;6.766;2022-07-04T10:41:20;101588.03;;;23.33;40.57
62051;BME280;48008;51.204;6.766;2022-07-04T10:46:27;101595.34;;;23.33;40.70
62051;BME280;48008;51.204;6.766;2022-07-04T10:48:57;101598.09;;;23.58;40.87
62051;BME280;48008;51.204;6.766;2022-07-04T10:51:53;101595.13;;;23.34;41.36
62051;BME280;48008;51.204;6.766;2022-07-04T10:54:28;101584.69;;;22.99;41.01
62051;BME280;48008;51.204;6.766;2022-07-04T10:57:10;101585.81;;;22.85;41.30
62051;BME280;48008;51.204;6.766;2022-07-04T10:59:38;101579.00;;;22.69;43.10
62051;BME280;48008;51.204;6.766;2022-07-04T11:05:12;101572.59;;;22.57;41.77
62051;BME280;48008;51.204;6.766;2022-07-04T11:10:20;101563.69;;;23.33;40.88
62051;BME280;48008;51.204;6.766;2022-07-04T11:18:14;101552.22;;;23.88;38.94
62051;BME280;48008;51.204;6.766;2022-07-04T11:20:43;101556.19;;;23.61;39.70
62051;BME280;48008;51.204;6.766;2022-07-04T11:23:12;101553.84;;;23.39;39.35
62051;BME280;48008;51.204;6.766;2022-07-04T11:25:42;101550.84;;;23.54;37.46
62051;BME280;48008;51.204;6.766;2022-07-04T11:28:30;101559.94;;;23.60;36.83
62051;BME280;48008;51.204;6.766;2022-07-04T11:31:09;101553.69;;;23.34;36.38
62051;BME280;48008;51.204;6.766;2022-07-04T11:33:36;101554.88;;;23.13;38.86
62051;BME280;48008;51.204;6.766;2022-07-04T11:36:09;101555.94;;;23.37;38.50
62051;BME280;48008;51.204;6.766;2022-07-04T11:38:49;101551.66;;;23.54;38.89
62051;BME280;48008;51.204;6.766;2022-07-04T11:41:19;101547.28;;;23.79;38.28
62051;BME280;48008;51.204;6.766;2022-07-04T11:44:09;101542.78;;;24.16;37.77
62051;BME280;48008;51.204;6.766;2022-07-04T11:49:55;101533.66;;;24.47;37.48
62051;BME280;48008;51.204;6.766;2022-07-04T11:52:24;101535.47;;;24.53;36.48
62051;BME280;48008;51.204;6.766;2022-07-04T11:55:13;101544.94;;;24.81;36.38
62051;BME280;48008;51.204;6.766;2022-07-04T11:57:42;101548.25;;;24.46;35.93
62051;BME280;48008;51.204;6.766;2022-07-04T12:00:14;101537.25;;;24.23;36.06
62051;BME280;48008;51.204;6.766;2022-07-04T12:02:44;101523.94;;;24.40;37.56
62051;BME280;48008;51.204;6.766;2022-07-04T12:05:11;101530.81;;;24.24;38.51
62051;BME280;48008;51.204;6.766;2022-07-04T12:07:40;101536.06;;;24.00;38.13
62051;BME280;48008;51.204;6.766;2022-07-04T12:10:14;101524.69;;;23.91;38.21
62051;BME280;48008;51.204;6.766;2022-07-04T12:13:02;101524.88;;;23.65;38.87
62051;BME280;48008;51.204;6.766;2022-07-04T12:15:40;101535.78;;;23.33;38.76
62051;BME280;48008;51.204;6.766;2022-07-04T12:18:17;101536.00;;;23.31;38.53
62051;BME280;48008;51.204;6.766;2022-07-04T12:20:45;101534.19;;;23.25;38.13
62051;BME280;48008;51.204;6.766;2022-07-04T12:23:12;101540.31;;;23.64;36.01
62051;BME280;48008;51.204;6.766;2022-07-04T12:25:39;101530.25;;;23.97;36.08
62051;BME280;48008;51.204;6.766;2022-07-04T12:28:09;101531.63;;;24.24;34.39
62051;BME280;48008;51.204;6.766;2022-07-04T12:30:38;101528.78;;;24.38;34.29
62051;BME280;48008;51.204;6.766;2022-07-04T12:33:07;101529.41;;;24.70;33.66
62051;BME280;48008;51.204;6.766;2022-07-04T12:35:38;101528.28;;;24.41;35.64
62051;BME280;48008;51.204;6.766;2022-07-04T12:38:07;101525.75;;;24.09;36.80
62051;BME280;48008;51.204;6.766;2022-07-04T12:40:35;101521.91;;;23.98;37.02
62051;BME280;48008;51.204;6.766;2022-07-04T12:43:05;101517.19;;;24.30;36.61
62051;BME280;48008;51.204;6.766;2022-07-04T12:45:49;101517.28;;;24.73;36.20
62051;BME280;48008;51.204;6.766;2022-07-04T12:48:20;101513.13;;;25.00;36.02
62051;BME280;48008;51.204;6.766;2022-07-04T12:50:48;101515.25;;;25.40;33.53
62051;BME280;48008;51.204;6.766;2022-07-04T12:53:16;101515.38;;;25.45;34.48
62051;BME280;48008;51.204;6.766;2022-07-04T12:55:44;101512.31;;;25.54;30.99
62051;BME280;48008;51.204;6.766;2022-07-04T12:58:12;101510.91;;;25.51;32.34
62051;BME280;48008;51.204;6.766;2022-07-04T13:00:40;101508.44;;;25.61;32.40
62051;BME280;48008;51.204;6.766;2022-07-04T13:03:08;101513.03;;;25.73;31.69
62051;BME280;48008;51.204;6.766;2022-07-04T13:05:36;101513.25;;;25.47;31.96
62051;BME280;48008;51.204;6.766;2022-07-04T13:08:04;101515.75;;;25.49;31.94
62051;BME280;48008;51.204;6.766;2022-07-04T13:10:31;101520.69;;;25.40;32.39
62051;BME280;48008;51.204;6.766;2022-07-04T13:12:59;101509.84;;;25.64;33.51
62051;BME280;48008;51.204;6.766;2022-07-04T13:15:26;101512.53;;;25.76;32.13
62051;BME280;48008;51.204;6.766;2022-07-04T13:17:53;101508.06;;;25.58;32.32